Time;durP1;ratioP1;P1;durP2;ratioP2;P2;SDS_P1;SDS_P2;PMS_P1;PMS_P2;Temp;Humidity;BMP_temperature;BMP_pressure;BME280_temperature;BME280_humidity;BME280_pressure;Samples;Min_cycle;Max_cycle;Signal;HPM_P1;HPM_P2
2023/05/01 00:03:53;;;;;;;2.47;1.10;;;;;;;;;;10375343;28;20455;-81
2023/05/01 00:08:56;;;;;;;0.80;0.80;;;;;;;;;;10366378;28;20060;-82
2023/05/01 00:13:59;;;;;;;0.77;0.70;;;;;;;;;;10353781;28;20053;-82
2023/05/01 00:19:04;;;;;;;1.58;0.95;;;;;;;;;;10380717;28;20553;-82
2023/05/01 00:24:08;;;;;;;2.83;0.90;;;;;;;;;;10359500;28;20423;-81
2023/05/01 00:29:11;;;;;;;1.88;0.82;;;;;;;;;;10356434;28;20057;-82
2023/05/01 00:34:16;;;;;;;0.90;0.80;;;;;;;;;;10362896;28;20054;-81
2023/05/01 00:39:19;;;;;;;2.55;1.27;;;;;;;;;;10366889;28;20050;-81
2023/05/01 00:44:23;;;;;;;2.00;1.00;;;;;;;;;;10348174;28;20054;-81
2023/05/01 00:49:28;;;;;;;1.40;0.98;;;;;;;;;;10367395;28;20438;-82
2023/05/01 00:54:31;;;;;;;1.85;1.17;;;;;;;;;;10381084;28;20053;-83
2023/05/01 00:59:35;;;;;;;2.97;1.15;;;;;;;;;;10380214;28;20052;-84
2023/05/01 01:04:40;;;;;;;1.17;1.08;;;;;;;;;;10400634;28;20059;-85
2023/05/01 01:09:55;;;;;;;1.43;1.30;;;;;;;;;;10398014;28;20049;-84
2023/05/01 01:15:08;;;;;;;1.67;1.33;;;;;;;;;;10390699;28;20050;-87
2023/05/01 01:20:31;;;;;;;2.90;1.20;;;;;;;;;;10359590;28;20068;-81
2023/05/01 01:26:11;;;;;;;2.42;1.42;;;;;;;;;;10358243;28;20038;-83
2023/05/01 01:31:17;;;;;;;2.17;1.15;;;;;;;;;;10399860;28;20091;-83
2023/05/01 01:36:30;;;;;;;;;;;;;;;;;;10381848;28;20052;-88
2023/05/01 01:41:36;;;;;;;1.48;1.05;;;;;;;;;;10372680;28;20390;-86
2023/05/01 01:46:42;;;;;;;1.58;1.33;;;;;;;;;;10347507;22;20046;-83
2023/05/01 01:51:48;;;;;;;1.50;1.00;;;;;;;;;;10335931;28;20051;-82
2023/05/01 01:56:52;;;;;;;1.45;1.10;;;;;;;;;;10320196;28;20050;-82
2023/05/01 02:01:57;;;;;;;1.70;1.23;;;;;;;;;;10339989;28;20534;-82
2023/05/01 02:07:02;;;;;;;1.73;1.33;;;;;;;;;;10351107;28;20057;-82
2023/05/01 02:12:08;;;;;;;3.17;1.10;;;;;;;;;;10349649;28;20054;-82
2023/05/01 02:17:13;;;;;;;1.88;1.17;;;;;;;;;;10342650;28;20042;-82
2023/05/01 02:22:20;;;;;;;1.08;0.98;;;;;;;;;;10344754;28;20122;-83
2023/05/01 02:27:30;;;;;;;1.02;0.93;;;;;;;;;;10356077;28;20058;-82
2023/05/01 02:32:33;;;;;;;1.42;1.08;;;;;;;;;;10342375;28;20035;-83
2023/05/01 02:37:38;;;;;;;0.75;0.70;;;;;;;;;;10348806;28;20050;-82
2023/05/01 02:42:43;;;;;;;1.88;0.90;;;;;;;;;;10349352;28;20054;-82
2023/05/01 02:47:51;;;;;;;1.40;0.98;;;;;;;;;;10351871;28;20074;-82
2023/05/01 02:52:56;;;;;;;0.82;0.77;;;;;;;;;;10341876;28;20058;-81
2023/05/01 02:58:08;;;;;;;1.45;0.85;;;;;;;;;;10330721;28;20133;-82
2023/05/01 03:03:11;;;;;;;2.08;0.95;;;;;;;;;;10329171;28;20061;-81
2023/05/01 03:08:16;;;;;;;0.80;0.73;;;;;;;;;;10320985;28;20077;-82
2023/05/01 03:13:20;;;;;;;1.02;0.93;;;;;;;;;;10323305;28;20054;-82
2023/05/01 03:18:24;;;;;;;1.10;1.00;;;;;;;;;;10330801;28;20073;-82
2023/05/01 03:23:29;;;;;;;1.92;0.93;;;;;;;;;;10328599;28;20062;-81
2023/05/01 03:28:32;;;;;;;0.82;0.77;;;;;;;;;;10324318;28;20069;-82
2023/05/01 03:33:35;;;;;;;1.30;1.10;;;;;;;;;;10316881;28;20068;-82
2023/05/01 03:38:41;;;;;;;1.35;1.10;;;;;;;;;;10323853;28;20038;-82
2023/05/01 03:43:44;;;;;;;1.10;0.93;;;;;;;;;;10345162;28;20050;-82
2023/05/01 03:49:23;;;;;;;1.23;1.05;;;;;;;;;;10348710;28;20046;-82
2023/05/01 03:54:28;;;;;;;1.90;1.33;;;;;;;;;;10328721;28;20046;-82
2023/05/01 03:59:43;;;;;;;1.20;0.90;;;;;;;;;;10313915;28;20080;-82
2023/05/01 04:04:48;;;;;;;1.15;1.00;;;;;;;;;;10323292;28;20070;-82
2023/05/01 04:09:56;;;;;;;2.03;0.90;;;;;;;;;;10324882;28;20057;-82
2023/05/01 04:14:59;;;;;;;2.25;1.30;;;;;;;;;;10327655;28;20060;-82
2023/05/01 04:20:04;;;;;;;1.77;1.05;;;;;;;;;;10329106;28;20068;-82
2023/05/01 04:25:10;;;;;;;1.30;1.20;;;;;;;;;;10343194;28;20050;-82
2023/05/01 04:30:14;;;;;;;1.48;1.02;;;;;;;;;;10309214;28;20084;-82
2023/05/01 04:35:17;;;;;;;3.28;1.17;;;;;;;;;;10337989;28;20050;-82
2023/05/01 04:40:22;;;;;;;1.10;1.00;;;;;;;;;;10319225;28;20046;-82
2023/05/01 04:45:26;;;;;;;2.85;1.20;;;;;;;;;;10324089;28;20042;-82
2023/05/01 04:50:30;;;;;;;1.20;1.10;;;;;;;;;;10315491;28;20843;-83
2023/05/01 04:55:35;;;;;;;1.45;1.08;;;;;;;;;;10333978;28;20046;-82
2023/05/01 05:00:57;;;;;;;1.27;1.00;;;;;;;;;;10315343;28;20137;-82
2023/05/01 05:06:00;;;;;;;1.95;1.40;;;;;;;;;;10323649;28;20042;-82
2023/05/01 05:11:06;;;;;;;1.10;1.00;;;;;;;;;;10322434;28;20048;-82
2023/05/01 05:16:24;;;;;;;1.13;1.02;;;;;;;;;;10344319;28;20046;-82
2023/05/01 05:21:28;;;;;;;1.70;1.10;;;;;;;;;;10318990;28;20096;-82
2023/05/01 05:26:34;;;;;;;2.42;0.93;;;;;;;;;;10328513;28;20080;-82
2023/05/01 05:31:38;;;;;;;1.00;0.90;;;;;;;;;;10307303;28;20038;-82
2023/05/01 05:36:42;;;;;;;1.25;1.10;;;;;;;;;;10358235;28;20365;-82
2023/05/01 05:41:48;;;;;;;1.52;1.00;;;;;;;;;;10323450;28;20038;-82
2023/05/01 05:46:51;;;;;;;2.33;1.13;;;;;;;;;;10344685;28;20054;-82
2023/05/01 05:52:03;;;;;;;1.58;1.10;;;;;;;;;;10341570;28;20585;-81
2023/05/01 05:57:08;;;;;;;1.20;0.93;;;;;;;;;;10347259;28;20052;-82
2023/05/01 06:02:18;;;;;;;1.27;1.00;;;;;;;;;;10328658;28;20038;-83
2023/05/01 06:07:22;;;;;;;1.23;1.00;;;;;;;;;;10334645;28;20050;-82
2023/05/01 06:12:28;;;;;;;2.17;1.00;;;;;;;;;;10340132;28;20422;-82
2023/05/01 06:17:33;;;;;;;2.20;1.65;;;;;;;;;;10337438;28;20052;-83
2023/05/01 06:22:36;;;;;;;1.75;1.40;;;;;;;;;;10336500;28;20046;-82
2023/05/01 06:27:58;;;;;;;1.77;1.20;;;;;;;;;;10329210;28;20058;-83
2023/05/01 06:33:03;;;;;;;2.30;1.25;;;;;;;;;;10329992;28;20047;-83
2023/05/01 06:38:07;;;;;;;1.77;1.25;;;;;;;;;;10344786;28;20237;-83
2023/05/01 06:43:12;;;;;;;2.45;1.50;;;;;;;;;;10351204;28;20050;-87
2023/05/01 06:48:15;;;;;;;1.20;1.00;;;;;;;;;;10357378;28;20049;-88
2023/05/01 06:53:19;;;;;;;1.73;0.98;;;;;;;;;;10323996;28;20050;-83
2023/05/01 06:58:23;;;;;;;1.38;1.27;;;;;;;;;;10328374;28;20054;-82
2023/05/01 07:03:27;;;;;;;1.63;1.05;;;;;;;;;;10353356;28;20054;-82
2023/05/01 07:08:31;;;;;;;1.67;0.90;;;;;;;;;;10353076;28;20046;-82
2023/05/01 07:13:36;;;;;;;3.33;1.73;;;;;;;;;;10342502;28;20381;-82
2023/05/01 07:18:39;;;;;;;1.27;1.08;;;;;;;;;;10334202;28;21194;-82
2023/05/01 07:23:42;;;;;;;1.08;0.88;;;;;;;;;;10317252;28;20088;-82
2023/05/01 07:28:47;;;;;;;1.33;0.95;;;;;;;;;;10327221;28;20042;-82
2023/05/01 07:33:51;;;;;;;1.75;1.33;;;;;;;;;;10331332;28;20054;-81
2023/05/01 07:38:56;;;;;;;3.63;1.23;;;;;;;;;;10331314;28;20050;-81
2023/05/01 07:44:01;;;;;;;2.83;1.20;;;;;;;;;;10336261;23;20055;-84
2023/05/01 07:56:48;;;;;;;1.92;1.25;;;;;;;;;;10151107;29;20698;-81
2023/05/01 08:02:18;;;;;;;2.38;1.10;;;;;;;;;;10231148;28;20054;-82
2023/05/01 08:07:58;;;;;;;2.00;0.90;;;;;;;;;;10232494;28;20575;-82
2023/05/01 08:20:10;;;;;;;2.45;0.90;;;;;;;;;;10369213;23;20040;-82
2023/05/01 08:25:13;;;;;;;1.27;1.08;;;;;;;;;;10455157;28;20080;-83
2023/05/01 08:30:16;;;;;;;1.25;0.80;;;;;;;;;;10478193;28;20067;-82
2023/05/01 08:35:21;;;;;;;2.13;1.67;;;;;;;;;;10451277;28;20048;-83
2023/05/01 08:46:53;;;;;;;2.55;1.33;;;;;;;;;;10454381;28;20512;-85
2023/05/01 08:52:00;;;;;;;2.45;0.95;;;;;;;;;;10462169;28;20045;-85
2023/05/01 08:57:04;;;;;;;1.25;0.70;;;;;;;;;;10480780;28;20063;-88
2023/05/01 09:02:09;;;;;;;2.88;1.83;;;;;;;;;;10462451;28;20139;-84
2023/05/01 09:07:15;;;;;;;1.73;1.35;;;;;;;;;;10462539;28;20245;-84
2023/05/01 09:12:23;;;;;;;1.63;1.03;;;;;;;;;;10462133;28;20041;-85
2023/05/01 09:17:27;;;;;;;1.50;1.02;;;;;;;;;;10468730;28;20873;-84
2023/05/01 09:22:33;;;;;;;1.60;1.30;;;;;;;;;;10468531;28;20048;-83
2023/05/01 09:27:37;;;;;;;1.30;1.20;;;;;;;;;;10468343;28;20040;-84
2023/05/01 09:32:41;;;;;;;1.42;1.10;;;;;;;;;;10468677;28;20040;-85
2023/05/01 09:37:49;;;;;;;1.92;1.15;;;;;;;;;;10469904;28;20044;-87
2023/05/01 09:42:54;;;;;;;1.30;1.13;;;;;;;;;;10490985;28;20044;-85
2023/05/01 09:48:10;;;;;;;1.80;1.08;;;;;;;;;;10476157;28;20056;-84
2023/05/01 09:53:15;;;;;;;1.95;1.30;;;;;;;;;;10470006;28;20044;-87
2023/05/01 09:58:27;;;;;;;2.08;0.95;;;;;;;;;;10494170;28;20068;-85
2023/05/01 10:03:31;;;;;;;3.45;1.83;;;;;;;;;;10493600;28;20041;-84
2023/05/01 10:08:50;;;;;;;2.90;1.38;;;;;;;;;;10478263;28;20040;-87
2023/05/01 10:14:07;;;;;;;2.05;1.00;;;;;;;;;;10459580;28;20052;-87
2023/05/01 10:19:12;;;;;;;1.60;1.08;;;;;;;;;;10462818;28;20048;-88
2023/05/01 10:24:18;;;;;;;1.50;1.10;;;;;;;;;;10455325;28;20599;-87
2023/05/01 10:29:22;;;;;;;0.70;0.70;;;;;;;;;;10460687;28;20732;-84
2023/05/01 10:34:27;;;;;;;1.30;0.80;;;;;;;;;;10459527;28;20505;-87
2023/05/01 10:39:33;;;;;;;1.77;1.35;;;;;;;;;;10479960;28;20072;-84
2023/05/01 10:44:36;;;;;;;2.08;1.35;;;;;;;;;;10455869;28;20049;-84
2023/05/01 10:50:05;;;;;;;2.67;1.20;;;;;;;;;;10481507;28;20497;-84
2023/05/01 10:55:36;;;;;;;1.85;0.80;;;;;;;;;;10452395;28;20589;-83
2023/05/01 11:00:40;;;;;;;1.35;1.00;;;;;;;;;;10476280;28;20048;-86
2023/05/01 11:06:05;;;;;;;2.38;1.42;;;;;;;;;;10455570;28;20465;-85
2023/05/01 11:11:49;;;;;;;1.52;1.33;;;;;;;;;;10458677;28;20094;-87
2023/05/01 11:16:52;;;;;;;2.60;1.30;;;;;;;;;;10472011;28;20120;-84
2023/05/01 11:21:56;;;;;;;1.13;0.95;;;;;;;;;;10456595;28;20078;-84
2023/05/01 11:27:01;;;;;;;1.75;1.00;;;;;;;;;;10474442;28;20060;-86
2023/05/01 11:32:06;;;;;;;1.33;0.88;;;;;;;;;;10477879;28;20068;-84
2023/05/01 11:37:09;;;;;;;2.35;1.15;;;;;;;;;;10473030;28;20080;-84
2023/05/01 11:42:14;;;;;;;2.45;1.33;;;;;;;;;;10457186;28;20417;-83
2023/05/01 11:47:17;;;;;;;1.10;0.90;;;;;;;;;;10453078;28;20048;-85
2023/05/01 11:52:20;;;;;;;1.02;0.70;;;;;;;;;;10470700;28;20139;-84
2023/05/01 11:57:26;;;;;;;1.05;0.70;;;;;;;;;;10467698;28;20121;-84
2023/05/01 12:02:29;;;;;;;1.58;0.90;;;;;;;;;;10474268;28;20063;-84
2023/05/01 12:07:35;;;;;;;0.88;0.80;;;;;;;;;;10445437;28;20045;-83
2023/05/01 12:12:41;;;;;;;1.58;0.90;;;;;;;;;;10458909;28;20489;-85
2023/05/01 12:17:47;;;;;;;1.97;1.27;;;;;;;;;;10454137;28;20074;-87
2023/05/01 12:22:51;;;;;;;2.27;1.80;;;;;;;;;;10450243;28;20114;-84
2023/05/01 12:28:00;;;;;;;3.03;1.75;;;;;;;;;;10454023;28;20079;-84
2023/05/01 12:33:10;;;;;;;4.22;1.80;;;;;;;;;;10483760;28;20135;-84
2023/05/01 12:38:15;;;;;;;1.90;1.60;;;;;;;;;;10462433;28;20062;-83
2023/05/01 12:43:20;;;;;;;2.23;1.33;;;;;;;;;;10483375;28;20056;-87
2023/05/01 12:48:27;;;;;;;4.37;1.90;;;;;;;;;;10479212;28;20646;-84
2023/05/01 12:53:31;;;;;;;3.03;1.23;;;;;;;;;;10472958;28;20059;-83
2023/05/01 12:58:40;;;;;;;2.45;1.20;;;;;;;;;;10464574;28;20064;-84
2023/05/01 13:03:44;;;;;;;1.85;1.30;;;;;;;;;;10474142;28;20496;-86
2023/05/01 13:08:48;;;;;;;2.45;1.10;;;;;;;;;;10465592;28;20048;-83
2023/05/01 13:13:53;;;;;;;1.00;0.88;;;;;;;;;;10458705;28;20049;-84
2023/05/01 13:18:57;;;;;;;2.42;1.35;;;;;;;;;;10483225;28;20487;-83
2023/05/01 13:24:01;;;;;;;1.20;1.00;;;;;;;;;;10466165;28;20055;-87
2023/05/01 13:29:06;;;;;;;1.38;1.20;;;;;;;;;;10475384;28;20064;-84
2023/05/01 13:34:09;;;;;;;2.25;1.30;;;;;;;;;;10461867;28;20067;-83
2023/05/01 13:39:19;;;;;;;1.07;0.90;;;;;;;;;;10450991;28;20064;-83
2023/05/01 13:44:27;;;;;;;0.80;0.68;;;;;;;;;;10482406;22;20063;-82
2023/05/01 13:49:30;;;;;;;0.80;0.80;;;;;;;;;;10517372;28;20048;-84
2023/05/01 13:54:34;;;;;;;2.13;0.85;;;;;;;;;;10510933;28;20059;-84
2023/05/01 13:59:40;;;;;;;0.93;0.80;;;;;;;;;;10509197;28;20047;-84
2023/05/01 14:04:44;;;;;;;0.93;0.80;;;;;;;;;;10492993;28;20210;-84
2023/05/01 14:09:53;;;;;;;1.33;0.73;;;;;;;;;;10513387;28;20378;-83
2023/05/01 14:14:58;;;;;;;1.90;1.20;;;;;;;;;;10488405;28;20048;-84
2023/05/01 14:20:03;;;;;;;1.37;1.00;;;;;;;;;;10494532;28;20067;-82
2023/05/01 14:25:23;;;;;;;1.30;0.93;;;;;;;;;;10494881;28;20496;-82
2023/05/01 14:30:32;;;;;;;0.93;0.60;;;;;;;;;;10511172;28;20143;-82
2023/05/01 14:35:36;;;;;;;2.42;0.80;;;;;;;;;;10493848;28;20048;-83
2023/05/01 14:40:41;;;;;;;0.82;0.60;;;;;;;;;;10494871;28;20048;-83
2023/05/01 14:45:48;;;;;;;1.83;0.93;;;;;;;;;;10382304;28;20483;-82
2023/05/01 14:50:53;;;;;;;1.30;0.80;;;;;;;;;;10366373;28;20137;-82
2023/05/01 14:55:56;;;;;;;1.07;0.90;;;;;;;;;;10366908;28;20054;-82
2023/05/01 15:01:01;;;;;;;1.92;0.90;;;;;;;;;;10300489;28;20300;-82
2023/05/01 15:06:05;;;;;;;1.77;0.60;;;;;;;;;;10350724;28;20058;-81
2023/05/01 15:11:08;;;;;;;1.08;0.60;;;;;;;;;;10376664;28;20046;-83
2023/05/01 15:16:13;;;;;;;1.20;0.68;;;;;;;;;;10386906;28;20062;-81
2023/05/01 15:21:17;;;;;;;1.38;0.88;;;;;;;;;;10369712;28;20145;-84
2023/05/01 15:26:20;;;;;;;1.27;0.70;;;;;;;;;;10305128;28;20118;-83
2023/05/01 15:31:25;;;;;;;1.73;1.08;;;;;;;;;;10317191;28;20072;-83
2023/05/01 15:36:28;;;;;;;0.60;0.60;;;;;;;;;;10320544;28;20082;-81
2023/05/01 15:41:32;;;;;;;0.88;0.70;;;;;;;;;;10366626;28;20062;-81
2023/05/01 15:46:36;;;;;;;0.60;0.60;;;;;;;;;;10312778;28;20070;-81
2023/05/01 15:51:40;;;;;;;0.60;0.60;;;;;;;;;;10317608;28;20054;-81
2023/05/01 15:56:43;;;;;;;1.02;0.80;;;;;;;;;;10319641;28;20070;-80
2023/05/01 16:01:48;;;;;;;2.10;0.68;;;;;;;;;;10364693;28;20054;-82
2023/05/01 16:06:51;;;;;;;1.35;0.80;;;;;;;;;;10381327;28;20081;-81
2023/05/01 16:11:55;;;;;;;1.17;1.00;;;;;;;;;;10366284;28;20050;-81
2023/05/01 16:17:00;;;;;;;1.02;0.75;;;;;;;;;;10372457;28;20118;-81
2023/05/01 16:22:04;;;;;;;1.17;0.88;;;;;;;;;;10301395;28;20673;-80
2023/05/01 16:27:07;;;;;;;0.70;0.70;;;;;;;;;;10314139;28;20053;-81
2023/05/01 16:32:12;;;;;;;0.95;0.80;;;;;;;;;;10372026;28;20065;-81
2023/05/01 16:37:17;;;;;;;1.27;0.90;;;;;;;;;;10392571;28;20051;-81
2023/05/01 16:42:20;;;;;;;1.05;0.80;;;;;;;;;;10376492;28;20073;-81
2023/05/01 16:47:25;;;;;;;0.85;0.82;;;;;;;;;;10489853;28;20062;-84
2023/05/01 16:52:29;;;;;;;1.08;0.73;;;;;;;;;;10500085;28;20055;-84
2023/05/01 16:57:32;;;;;;;1.08;0.85;;;;;;;;;;10516990;28;20044;-84
2023/05/01 17:02:37;;;;;;;1.00;0.68;;;;;;;;;;10518492;28;20058;-83
2023/05/01 17:07:40;;;;;;;1.10;1.00;;;;;;;;;;10494421;28;20077;-81
2023/05/01 17:12:44;;;;;;;0.85;0.63;;;;;;;;;;10507679;28;20127;-82
2023/05/01 17:17:49;;;;;;;1.55;0.77;;;;;;;;;;10519893;28;20044;-81
2023/05/01 17:22:52;;;;;;;0.68;0.68;;;;;;;;;;10527244;28;20457;-80
2023/05/01 17:27:55;;;;;;;1.00;0.68;;;;;;;;;;10502367;28;20045;-82
2023/05/01 17:33:00;;;;;;;0.73;0.60;;;;;;;;;;10502079;28;20139;-84
2023/05/01 17:38:03;;;;;;;0.75;0.73;;;;;;;;;;10514303;28;20479;-82
2023/05/01 17:43:06;;;;;;;2.00;1.45;;;;;;;;;;10505838;28;20544;-83
2023/05/01 17:48:13;;;;;;;2.30;1.10;;;;;;;;;;10385480;28;20116;-80
2023/05/01 17:53:16;;;;;;;0.75;0.63;;;;;;;;;;10378049;28;20113;-81
2023/05/01 17:58:20;;;;;;;1.42;0.90;;;;;;;;;;10317384;28;20101;-84
2023/05/01 18:03:25;;;;;;;0.82;0.73;;;;;;;;;;10330420;28;20478;-83
2023/05/01 18:08:29;;;;;;;1.67;1.00;;;;;;;;;;10316475;28;20047;-83
2023/05/01 18:13:37;;;;;;;0.80;0.60;;;;;;;;;;10322027;28;20050;-84
2023/05/01 18:18:41;;;;;;;1.08;0.98;;;;;;;;;;10362577;28;20058;-83
2023/05/01 18:23:45;;;;;;;1.35;0.95;;;;;;;;;;10366504;28;20047;-83
2023/05/01 18:28:50;;;;;;;1.27;0.85;;;;;;;;;;10295214;28;20051;-83
2023/05/01 18:33:55;;;;;;;1.08;0.73;;;;;;;;;;10301563;28;21643;-83
2023/05/01 18:38:59;;;;;;;1.42;0.90;;;;;;;;;;10299918;28;20058;-83
2023/05/01 18:44:03;;;;;;;1.92;1.30;;;;;;;;;;10311718;28;20113;-83
2023/05/01 18:49:07;;;;;;;1.92;1.30;;;;;;;;;;10362526;28;20057;-83
2023/05/01 18:54:11;;;;;;;1.60;0.98;;;;;;;;;;10359804;28;20062;-83
2023/05/01 18:59:15;;;;;;;1.35;0.95;;;;;;;;;;10376130;28;20076;-83
2023/05/01 19:04:20;;;;;;;1.60;1.20;;;;;;;;;;10375476;28;20058;-84
2023/05/01 19:09:23;;;;;;;0.82;0.82;;;;;;;;;;10366197;28;20051;-83
2023/05/01 19:14:26;;;;;;;1.52;1.38;;;;;;;;;;10372269;28;20054;-83
2023/05/01 19:19:31;;;;;;;1.83;1.38;;;;;;;;;;10358588;28;20414;-83
2023/05/01 19:24:35;;;;;;;1.52;1.00;;;;;;;;;;10360171;28;20042;-83
2023/05/01 19:29:39;;;;;;;1.23;0.80;;;;;;;;;;10369737;28;20038;-83
2023/05/01 19:34:43;;;;;;;1.00;0.90;;;;;;;;;;10291992;28;20057;-83
2023/05/01 19:39:47;;;;;;;1.20;0.80;;;;;;;;;;10374788;28;20702;-83
2023/05/01 19:44:50;;;;;;;0.77;0.70;;;;;;;;;;10289530;28;20073;-82
2023/05/01 19:49:55;;;;;;;0.63;0.60;;;;;;;;;;10305310;28;20316;-83
2023/05/01 19:55:01;;;;;;;0.70;0.70;;;;;;;;;;10373909;28;20058;-83
2023/05/01 20:00:06;;;;;;;0.65;0.63;;;;;;;;;;10304960;28;20054;-84
2023/05/01 20:05:14;;;;;;;0.60;0.60;;;;;;;;;;10304742;28;20070;-83
2023/05/01 20:10:20;;;;;;;1.60;0.73;;;;;;;;;;10306936;28;20056;-83
2023/05/01 20:15:23;;;;;;;1.67;0.90;;;;;;;;;;10370497;28;20133;-83
2023/05/01 20:20:29;;;;;;;0.50;0.50;;;;;;;;;;10301192;28;20078;-83
2023/05/01 20:25:32;;;;;;;1.10;0.90;;;;;;;;;;10424968;28;20053;-83
2023/05/01 20:30:38;;;;;;;0.70;0.70;;;;;;;;;;10310917;28;20046;-83
2023/05/01 20:35:44;;;;;;;2.67;0.70;;;;;;;;;;10380501;28;20124;-83
2023/05/01 20:40:47;;;;;;;1.92;1.23;;;;;;;;;;10305897;28;20042;-83
2023/05/01 20:45:50;;;;;;;0.80;0.70;;;;;;;;;;10280708;28;20054;-83
2023/05/01 20:50:55;;;;;;;1.20;1.10;;;;;;;;;;10381522;28;20515;-83
2023/05/01 20:55:58;;;;;;;1.10;1.00;;;;;;;;;;10370191;28;20132;-83
2023/05/01 21:01:01;;;;;;;1.50;1.20;;;;;;;;;;10370076;28;20054;-83
2023/05/01 21:06:06;;;;;;;1.00;0.90;;;;;;;;;;10367121;28;20054;-83
2023/05/01 21:11:10;;;;;;;2.45;0.95;;;;;;;;;;10384493;28;20078;-83
2023/05/01 21:16:15;;;;;;;1.35;1.02;;;;;;;;;;10364907;28;20058;-84
2023/05/01 21:21:20;;;;;;;1.10;0.85;;;;;;;;;;10388650;28;20093;-83
2023/05/01 21:26:23;;;;;;;0.80;0.80;;;;;;;;;;10369448;28;20050;-83
2023/05/01 21:31:30;;;;;;;1.33;0.80;;;;;;;;;;10376961;28;20054;-83
2023/05/01 21:36:41;;;;;;;0.77;0.77;;;;;;;;;;10312900;28;20407;-82
2023/05/01 21:41:48;;;;;;;0.82;0.70;;;;;;;;;;10374093;28;20039;-83
2023/05/01 21:46:54;;;;;;;1.38;0.90;;;;;;;;;;10507388;28;20033;-83
2023/05/01 21:52:01;;;;;;;1.25;1.00;;;;;;;;;;10503606;28;20060;-82
2023/05/01 21:57:06;;;;;;;1.52;1.13;;;;;;;;;;10533097;28;20749;-83
2023/05/01 22:02:11;;;;;;;1.33;1.00;;;;;;;;;;10507692;28;20135;-83
2023/05/01 22:07:15;;;;;;;1.05;0.95;;;;;;;;;;10513271;28;20047;-83
2023/05/01 22:12:18;;;;;;;1.30;0.85;;;;;;;;;;10513676;28;20111;-83
2023/05/01 22:17:23;;;;;;;1.25;1.15;;;;;;;;;;10516696;28;20135;-83
2023/05/01 22:22:28;;;;;;;4.20;2.30;;;;;;;;;;10512214;28;20048;-85
2023/05/01 22:27:32;;;;;;;3.05;1.95;;;;;;;;;;10537310;28;20044;-83
2023/05/01 22:32:35;;;;;;;1.65;1.55;;;;;;;;;;10503411;28;20059;-83
2023/05/01 22:37:40;;;;;;;1.20;1.10;;;;;;;;;;10524527;28;20086;-83
2023/05/01 22:42:44;;;;;;;1.95;1.50;;;;;;;;;;10532234;28;20054;-83
2023/05/01 22:47:47;;;;;;;1.30;1.20;;;;;;;;;;10333173;28;20062;-84
2023/05/01 22:52:52;;;;;;;1.70;1.40;;;;;;;;;;10325903;28;20050;-83
2023/05/01 22:57:55;;;;;;;1.77;1.48;;;;;;;;;;10396262;28;20145;-85
2023/05/01 23:03:00;;;;;;;2.50;2.03;;;;;;;;;;10381143;28;20063;-83
2023/05/01 23:08:05;;;;;;;1.58;1.40;;;;;;;;;;10318788;28;20054;-83
2023/05/01 23:13:15;;;;;;;1.45;1.23;;;;;;;;;;10402489;28;20050;-83
2023/05/01 23:18:23;;;;;;;1.23;1.08;;;;;;;;;;10339734;28;20050;-84
2023/05/01 23:23:30;;;;;;;1.13;0.90;;;;;;;;;;10387649;28;20563;-83
2023/05/01 23:28:33;;;;;;;1.10;1.00;;;;;;;;;;10305225;28;20066;-83
2023/05/01 23:33:38;;;;;;;1.30;1.10;;;;;;;;;;10362815;28;20051;-83
2023/05/01 23:38:43;;;;;;;1.45;1.30;;;;;;;;;;10316039;28;20050;-83
2023/05/01 23:43:47;;;;;;;1.60;1.17;;;;;;;;;;10373427;28;20512;-83
2023/05/01 23:48:50;;;;;;;0.90;0.85;;;;;;;;;;10384443;28;20747;-83
2023/05/01 23:53:54;;;;;;;1.27;1.17;;;;;;;;;;10374019;28;20054;-83
2023/05/01 23:58:58;;;;;;;1.25;1.15;;;;;;;;;;10391163;28;20530;-83
